2008 OKC Memorial Marathon

Marathon

Awards and rank are based on gun time.

Boston Marathon qualification based on net time and age as of April 27, 2008.

Summary

Number of finishers:
1,970
Number of females:
737
Number of males:
1,233
Average time:
4:31:46

Info

April 27, 2008 in Oklahoma City, OK

Results By

Marathon - Results

Leaderboard
  • Male Participants
    1. Nathan Adams 2:36:43
    2. Billy Grona 2:42:28
    3. Mathew Napier 2:44:13
    4. Kurt Klewin 2:47:29
    5. Chase Haney 2:48:30
  • Female Participants
    1. Jennifer Graef 3:02:15
    2. Tracy Thelen 3:09:23
    3. Jamie Pusateri 3:10:19
    4. Brandi Shaw 3:13:30
    5. Jennifer West 3:18:19

displaying: 1 - 40 of 40
number of records per page: [10] [25] [all]

    NO FN LN SEX DIVISION BOSTON CITY STATE OVERALL DIVPL SEXPL GUNTIME 10K 15K HALF 27K 32K TIME PACE
1308 Clayton Earlywine M M2024 - Oklahoma Ctiy OK 92 9/66 86/1233 3:21:09 44:40 1:07:46 1:35:31 2:01:12 2:27:46 3:21:04 7:41
287 Jennifer West F F3034 X Lawrence KS 93 3/110 7/737 3:21:20 46:52 1:09:48 1:37:37 2:03:08 2:28:52 3:18:19 7:35
1274 Lorissa Kingsbury F F3034 X Sayre OK 94 4/110 8/737 3:21:28 46:52 1:10:42 1:39:25 2:05:55 2:31:33 3:21:18 7:41
688 Yoko Hartland F F3539 X Sioux Falls SD 95 1/109 9/737 3:21:30 48:02 1:11:46 1:40:50 2:07:22 2:33:47 3:21:14 7:41
455 Jonathan Herrick M M2529 - Dallas TX 96 15/87 87/1233 3:21:44 46:07 1:09:38 1:38:23 2:05:16 2:31:58 3:21:39 7:42
874 Cecil Cooper M M4549 X Fort Worth TX 97 10/156 88/1233 3:21:57 46:53 1:10:55 1:39:48 2:06:01 2:31:57 3:21:46 7:43
631 Kelly Murphy F F4549 X Nashville TN 98 1/84 10/737 3:22:11 46:55 1:11:05 1:40:38 2:07:29 2:34:02 3:21:41 7:42
270 Jason Knight M M2529 - Rogers AR 99 16/87 89/1233 3:22:12 48:12 1:11:03 1:38:26 2:04:15 2:30:00 3:20:26 7:39
3152 Derek Kilgo M M3034 - Bella Vista AR 100 20/130 90/1233 3:22:29 50:25 1:15:17 1:45:03 2:11:45 2:36:50 3:20:37 7:40
1238 Yassir Janah M M2529 - Broken Arrow OK 101 17/87 91/1233 3:22:55 45:27 1:09:02 1:37:58 2:04:51 2:31:36 3:22:43 7:45
666 Gerald Breeden M M5054 X Moore OK 102 4/107 92/1233 3:23:21 48:48 1:13:01 1:42:04 2:08:42 2:35:25 3:23:00 7:45
755 David Branner M M5559 X Temple TX 103 1/58 93/1233 3:23:22 47:37 1:11:36 1:40:41 2:07:12 2:33:35 3:22:56 7:45
908 Richard Lawhead M M4044 - Bossie City LA 104 17/111 94/1233 3:23:38 45:34 1:09:22 1:38:24 2:04:44 2:30:38 3:22:16 7:44
1363 Jonathan Conder M M3034 - Oklahoma City OK 105 21/130 95/1233 3:23:50 49:16 1:13:58 1:43:16 2:09:25 2:35:36 3:21:23 7:42
1078 Erin Quinn F F2529 X Waco TX 106 2/117 11/737 3:23:55 45:27 1:09:35 1:39:07 2:05:54 2:33:18 3:23:04 7:46
576 Vance Sharpe M M2529 - Oklahoma City OK 107 18/87 96/1233 3:24:00 48:36 1:11:49 1:40:04 2:06:26 2:34:55 3:22:07 7:43
630 Bob Murphy M M5054 X Nashville TN 108 5/107 97/1233 3:24:28 46:55 1:11:05 1:40:36 2:07:21 2:34:25 3:23:57 7:48
2886 Jarrod Cordova M M3034 - Oklahoma City OK 109 22/130 98/1233 3:24:39 46:10 1:11:57 1:40:37 2:07:33 2:34:33 3:24:25 7:49
3292 Kevin Brown M M2024 - Edmond OK 110 10/66 99/1233 3:24:41 44:21 1:06:42 1:34:37 2:00:59 2:27:50 3:23:17 7:46
384 Jared Harp M M2529 - Colorado Springs CO 111 19/87 100/1233 3:24:50 48:44 1:13:57 1:44:09 2:11:18 2:38:22 3:24:32 7:49
1766 Kathryn Aylor F F3034 X Norman OK 112 5/110 12/737 3:24:50 50:46 1:15:59 1:45:46 2:12:34 2:38:41 3:23:35 7:47
111 Roger Brown M M4549 X Oklahoma City OK 113 11/156 101/1233 3:25:21 48:39 1:13:31 1:43:39 2:10:41 2:37:00 3:25:06 7:50
2887 Jose Acosta M M3034 - Houston TX 114 23/130 102/1233 3:26:01 47:25 1:10:50 1:39:43 2:06:08 2:32:29 3:25:44 7:52
1027 Brandon Armstrong M M2024 - Stillwater OK 115 11/66 103/1233 3:26:21 51:04 1:17:00 1:47:03 2:13:10 2:39:26 3:25:53 7:52
607 Courtney Dewees F F2529 X Manhattan KS 116 3/117 13/737 3:26:49 49:34 1:14:03 1:43:38 2:10:25 2:36:05 3:22:58 7:45
1192 Darrel Andrews M M4549 X Willow Park TX 117 12/156 104/1233 3:26:57 46:53 1:10:52 1:39:52 2:06:21 2:33:57 3:26:47 7:54
837 Dan Greenberg M M3034 - Little Elm TX 118 24/130 105/1233 3:27:04 48:14 1:12:32 1:42:16 2:09:43 2:37:06 3:26:47 7:54
150 Robert Muzny M M3539 - Oklahoma City OK 119 11/126 106/1233 3:27:32 45:29 1:08:48 1:37:37 2:04:49 2:32:08 3:23:34 7:47
2775 Benjamin Janssen M M3034 - Oklahoma City OK 120 25/130 107/1233 3:27:39 43:08 1:04:58 1:31:12 1:55:23 2:21:40 3:27:26 7:56
1151 Lori Smith F F3539 X Madison MS 121 2/109 14/737 3:27:43 49:15 1:14:27 1:44:33 2:12:07 2:39:21 3:27:30 7:56
2949 Grant Usry M M2024 - Dallas TX 122 12/66 108/1233 3:27:44 45:28 1:09:17 1:36:59 2:04:16 2:31:25 3:27:10 7:55
1760 Byron Hanes M M3539 - Oklahoma City OK 123 12/126 109/1233 3:28:03 47:14 1:10:47 1:39:19 2:05:10 2:31:33 3:19:41 7:38
2793 Anthony Gutierrez M M2024 - San Antonio TX 124 13/66 110/1233 3:28:05 51:57 1:15:50 1:45:08 2:11:19 2:37:35 3:25:59 7:52
780 Dan Reinheimer M M4044 - Frisco TX 125 18/111 111/1233 3:28:15 46:32 1:10:25 1:39:43 2:07:03 2:35:05 3:27:56 7:57
289 Keith Gora M M3034 - Austin TX 126 26/130 112/1233 3:28:15 48:37 1:13:25 1:43:21 2:11:07 2:38:14 3:27:51 7:56
232 Jeff Johnston M M5054 X Deer Park WI 127 6/107 113/1233 3:28:18 46:52 1:11:45 1:41:54 2:09:17 2:35:56 3:27:57 7:57
2578 John Sturdivant M M2024 - Scottsdale AZ 128 14/66 114/1233 3:28:19 48:00 - 1:42:03 2:09:04 2:35:52 3:27:58 7:57
493 Josh Hubbard M M2529 - Overland Park KS 129 20/87 115/1233 3:28:21 48:18 1:13:20 1:43:46 2:11:13 2:38:05 3:27:14 7:55
2862 Forrest Blackbear M M3034 - Tahlequah OK 130 27/130 116/1233 3:28:48 48:12 1:13:13 1:43:28 2:11:12 2:38:20 3:27:18 7:55
    NO FN LN SEX DIVISION BOSTON CITY STATE OVERALL DIVPL SEXPL GUNTIME 10K 15K HALF 27K 32K TIME PACE
973 Rick Orr M M5054 X Ardmore OK 131 7/107 117/1233 3:28:48 50:55 1:16:32 1:47:01 2:14:28 2:41:05 3:28:24 7:58

  • share - click this icon in the results above to share via Facebook, Twitter, email, and more
  • print - click this icon in the results above for a printable page
  • radius - click this icon in the results above to show finishers before and after